Time;durP1;ratioP1;P1;durP2;ratioP2;P2;SDS_P1;SDS_P2;PMS_P1;PMS_P2;Temp;Humidity;BMP_temperature;BMP_pressure;BME280_temperature;BME280_humidity;BME280_pressure;Samples;Min_cycle;Max_cycle;Signal;HPM_P1;HPM_P2
2021/03/27 00:00:36;;;;;;;62.17;33.30;;;;;;;9.46;47.66;100461.81;5068831;28;20598;-74
2021/03/27 00:03:11;;;;;;;70.90;33.65;;;;;;;9.41;47.71;100462.84;5066301;28;20528;-75
2021/03/27 00:05:42;;;;;;;67.63;33.95;;;;;;;9.36;47.56;100465.59;5066606;28;20033;-74
2021/03/27 00:08:16;;;;;;;63.47;33.78;;;;;;;9.35;47.60;100457.78;5063686;28;20131;-74
2021/03/27 00:10:54;;;;;;;62.47;34.17;;;;;;;9.33;47.35;100454.38;5068484;28;20052;-75
2021/03/27 00:13:32;;;;;;;60.45;32.33;;;;;;;9.30;47.78;100460.56;5067490;28;20135;-75
2021/03/27 00:16:05;;;;;;;65.25;31.60;;;;;;;9.31;47.73;100449.19;5067900;28;20069;-75
2021/03/27 00:18:41;;;;;;;61.72;31.65;;;;;;;9.24;47.69;100454.66;5065699;28;20517;-74
2021/03/27 00:21:12;;;;;;;58.97;30.80;;;;;;;9.16;48.01;100453.13;5067914;28;20063;-73
2021/03/27 00:23:53;;;;;;;57.90;30.95;;;;;;;9.08;48.05;100454.22;5067859;28;20118;-75
2021/03/27 00:26:26;;;;;;;65.78;33.05;;;;;;;8.98;48.32;100447.56;5063916;28;20051;-75
2021/03/27 00:28:57;;;;;;;61.08;31.90;;;;;;;8.88;48.52;100449.56;5069212;28;20057;-75
2021/03/27 00:31:29;;;;;;;64.35;32.10;;;;;;;8.80;48.59;100444.56;5065659;28;20037;-76
2021/03/27 00:33:58;;;;;;;68.97;32.80;;;;;;;8.73;49.04;100440.38;5068900;28;20450;-73
2021/03/27 00:36:29;;;;;;;61.58;31.33;;;;;;;8.66;49.08;100440.63;5063140;28;20153;-76
2021/03/27 00:39:01;;;;;;;57.78;30.08;;;;;;;8.61;49.15;100427.69;5067611;28;20037;-75
2021/03/27 00:41:35;;;;;;;63.22;31.05;;;;;;;8.58;49.24;100427.78;5066684;28;20079;-75
2021/03/27 00:44:05;;;;;;;67.30;32.35;;;;;;;8.59;49.10;100424.25;5068777;28;20131;-75
2021/03/27 00:46:33;;;;;;;60.58;31.02;;;;;;;8.60;49.15;100423.34;5065962;28;20045;-76
2021/03/27 00:49:04;;;;;;;62.15;31.60;;;;;;;8.58;49.30;100422.53;5068276;28;20044;-76
2021/03/27 00:51:33;;;;;;;65.35;30.85;;;;;;;8.59;49.33;100412.94;5066665;28;20139;-76
2021/03/27 00:54:06;;;;;;;60.00;30.83;;;;;;;8.58;49.52;100419.06;5070744;28;20486;-76
2021/03/27 00:56:38;;;;;;;63.47;31.60;;;;;;;8.60;49.59;100419.88;5060815;28;20044;-74
2021/03/27 00:59:07;;;;;;;62.72;30.58;;;;;;;8.63;49.56;100420.66;5066431;28;20068;-76
2021/03/27 01:01:39;;;;;;;65.65;32.45;;;;;;;8.64;49.32;100417.13;5067575;28;20143;-75
2021/03/27 01:04:10;;;;;;;63.33;30.70;;;;;;;8.67;49.60;100429.25;5068816;28;20048;-75
2021/03/27 01:06:43;;;;;;;61.72;31.92;;;;;;;8.61;49.73;100424.22;5066757;28;20598;-76
2021/03/27 01:09:12;;;;;;;58.42;28.40;;;;;;;8.54;50.14;100416.53;5070471;28;20084;-76
2021/03/27 01:11:44;;;;;;;60.42;29.83;;;;;;;8.45;50.14;100419.41;5068117;28;20140;-76
2021/03/27 01:14:17;;;;;;;64.38;31.38;;;;;;;8.39;50.43;100416.09;5071124;28;20083;-76
2021/03/27 01:16:50;;;;;;;63.67;31.55;;;;;;;8.33;50.45;100405.75;5070672;28;20189;-76
2021/03/27 01:19:20;;;;;;;56.33;28.67;;;;;;;8.29;50.74;100410.22;5071473;28;20053;-75
2021/03/27 01:21:48;;;;;;;61.65;30.30;;;;;;;8.23;50.52;100406.00;5070839;28;20217;-74
2021/03/27 01:24:17;;;;;;;62.80;31.23;;;;;;;8.20;50.90;100410.47;5067038;28;20480;-75
2021/03/27 01:26:47;;;;;;;57.25;30.08;;;;;;;8.16;50.89;100409.69;5066729;28;20143;-75
2021/03/27 01:29:23;;;;;;;55.42;29.13;;;;;;;8.14;50.78;100410.63;5072416;28;20172;-75
2021/03/27 01:31:53;;;;;;;57.45;29.25;;;;;;;8.11;50.95;100411.53;5071350;28;20163;-74
2021/03/27 01:34:26;;;;;;;59.92;30.23;;;;;;;8.06;51.23;100404.72;5071287;28;20078;-74
2021/03/27 01:37:01;;;;;;;60.60;31.90;;;;;;;8.02;51.16;100398.72;5070534;28;20102;-74
2021/03/27 01:39:32;;;;;;;63.10;30.27;;;;;;;8.02;51.31;100396.13;5070433;28;20098;-74
2021/03/27 01:42:02;;;;;;;;;;;;;;;8.17;50.51;100379.22;5069447;28;20492;-75
2021/03/27 01:44:44;;;;;;;61.65;29.63;;;;;;;8.01;50.95;100393.56;5072929;28;19952;-74
2021/03/27 01:47:18;;;;;;;63.85;29.40;;;;;;;7.99;50.96;100385.75;5072824;28;20048;-74
2021/03/27 01:50:03;;;;;;;59.78;30.33;;;;;;;8.00;51.27;100382.25;5067737;28;20040;-74
2021/03/27 01:52:44;;;;;;;54.25;28.92;;;;;;;8.05;51.25;100387.34;5071643;28;20130;-75
2021/03/27 01:55:22;;;;;;;46.95;22.70;;;;;;;8.10;51.10;100381.09;5070879;28;20136;-74
2021/03/27 01:57:54;;;;;;;57.58;28.00;;;;;;;8.15;51.15;100379.25;5069957;28;20132;-74
2021/03/27 02:00:23;;;;;;;57.00;28.95;;;;;;;8.19;51.00;100375.66;5070456;28;20459;-73
2021/03/27 02:03:02;;;;;;;65.75;30.48;;;;;;;8.21;51.00;100376.47;5072733;28;20051;-73
2021/03/27 02:05:34;;;;;;;55.63;28.67;;;;;;;8.29;50.91;100378.00;5067920;28;20041;-76
2021/03/27 02:08:07;;;;;;;61.58;28.50;;;;;;;8.30;50.93;100372.75;5069876;28;20076;-75
2021/03/27 02:10:45;;;;;;;61.97;28.65;;;;;;;8.34;50.85;100370.97;5068743;28;20534;-74
2021/03/27 02:13:19;;;;;;;54.58;27.83;;;;;;;8.40;51.01;100366.41;5069559;28;20148;-74
2021/03/27 02:15:55;;;;;;;62.88;31.08;;;;;;;8.47;50.58;100361.88;5067941;28;20041;-75
2021/03/27 02:18:31;;;;;;;57.30;29.13;;;;;;;8.55;50.69;100365.16;5070490;28;20044;-74
2021/03/27 02:21:37;;;;;;;51.08;26.33;;;;;;;8.60;50.44;100352.78;5070420;28;20041;-74
2021/03/27 02:24:20;;;;;;;56.15;28.52;;;;;;;8.56;50.30;100348.56;5068931;28;20044;-73
2021/03/27 02:27:02;;;;;;;54.15;27.13;;;;;;;8.51;50.51;100351.28;5069099;28;20507;-75
2021/03/27 02:29:54;;;;;;;57.22;27.02;;;;;;;8.52;50.68;100333.84;5066800;28;20040;-74
2021/03/27 02:32:27;;;;;;;52.35;26.30;;;;;;;8.54;50.90;100316.41;5068072;28;20146;-75
2021/03/27 02:35:01;;;;;;;51.75;26.10;;;;;;;8.51;50.92;100324.28;5070175;28;20449;-75
2021/03/27 02:37:31;;;;;;;52.47;26.10;;;;;;;8.48;50.79;100333.09;5068853;28;20064;-75
2021/03/27 02:40:02;;;;;;;50.97;26.85;;;;;;;8.48;50.84;100343.53;5071435;28;20049;-74
2021/03/27 02:42:41;;;;;;;56.45;27.80;;;;;;;8.46;51.13;100347.09;5069494;28;20044;-74
2021/03/27 02:45:14;;;;;;;54.70;28.80;;;;;;;8.54;50.78;100358.22;5069842;28;20556;-74
2021/03/27 02:47:52;;;;;;;54.78;27.00;;;;;;;8.62;50.88;100345.75;5067264;28;20040;-75
2021/03/27 02:50:36;;;;;;;49.63;27.23;;;;;;;8.72;50.52;100347.19;5066752;28;20076;-75
2021/03/27 02:53:11;;;;;;;62.90;27.30;;;;;;;8.78;50.44;100341.81;5070945;28;20190;-76
2021/03/27 02:55:46;;;;;;;53.70;26.90;;;;;;;8.81;50.19;100339.09;5066208;28;20065;-76
2021/03/27 02:58:20;;;;;;;54.13;27.77;;;;;;;8.87;50.50;100340.66;5064357;28;20053;-74
2021/03/27 03:00:59;;;;;;;52.83;27.33;;;;;;;8.91;50.27;100337.06;5069774;28;20057;-74
2021/03/27 03:03:31;;;;;;;56.15;26.98;;;;;;;8.98;50.15;100330.75;5068530;28;20131;-74
2021/03/27 03:06:06;;;;;;;51.47;25.17;;;;;;;9.01;50.08;100333.28;5067276;28;20056;-74
2021/03/27 03:08:40;;;;;;;54.22;26.80;;;;;;;9.06;49.93;100333.13;5069519;28;20052;-74
2021/03/27 03:11:13;;;;;;;55.30;28.20;;;;;;;9.13;49.93;100337.25;5069515;28;20536;-74
2021/03/27 03:13:43;;;;;;;53.33;26.65;;;;;;;9.21;49.76;100343.13;5067487;28;20041;-74
2021/03/27 03:16:20;;;;;;;52.28;26.48;;;;;;;9.30;49.47;100329.75;5069286;28;20127;-75
2021/03/27 03:18:56;;;;;;;56.38;28.17;;;;;;;9.40;49.08;100333.78;5066060;28;20151;-75
2021/03/27 03:21:27;;;;;;;54.78;27.40;;;;;;;9.46;48.86;100336.19;5066797;28;20055;-73
2021/03/27 03:24:08;;;;;;;52.75;26.60;;;;;;;9.52;48.81;100329.06;5068125;28;20070;-73
2021/03/27 03:26:47;;;;;;;57.50;28.67;;;;;;;9.54;48.87;100329.84;5068621;28;20074;-74
2021/03/27 03:29:22;;;;;;;59.92;28.75;;;;;;;9.56;48.84;100330.66;5068936;28;20440;-74
2021/03/27 03:32:02;;;;;;;53.95;28.85;;;;;;;9.57;48.90;100327.13;5067163;28;20464;-74
2021/03/27 03:34:44;;;;;;;55.00;29.48;;;;;;;9.59;48.74;100312.25;5067947;28;20064;-73
2021/03/27 03:37:16;;;;;;;47.60;26.48;;;;;;;9.61;48.63;100313.91;5068175;28;20056;-75
2021/03/27 03:40:09;;;;;;;52.17;28.65;;;;;;;9.64;48.83;100307.72;5070735;28;20068;-74
2021/03/27 03:43:04;;;;;;;52.35;27.23;;;;;;;9.67;48.60;100308.47;5027998;28;20094;-74
2021/03/27 03:46:03;;;;;;;55.05;27.27;;;;;;;9.68;48.71;100304.09;5068927;28;20056;-75
2021/03/27 03:49:00;;;;;;;50.70;26.45;;;;;;;9.65;49.03;100304.19;5040667;28;20060;-75
2021/03/27 03:51:32;;;;;;;48.78;25.92;;;;;;;9.69;48.91;100301.41;5068402;28;20575;-73
2021/03/27 03:54:20;;;;;;;49.42;26.80;;;;;;;9.70;48.80;100303.13;5064464;28;20452;-76
2021/03/27 03:56:52;;;;;;;58.28;28.75;;;;;;;9.69;48.97;100305.78;5066876;28;20102;-76
2021/03/27 03:59:34;;;;;;;54.10;26.88;;;;;;;9.66;49.20;100300.66;5070375;28;20536;-75
2021/03/27 04:02:07;;;;;;;49.22;25.65;;;;;;;9.68;49.03;100298.84;5067187;28;20056;-75
2021/03/27 04:04:42;;;;;;;52.83;27.55;;;;;;;9.68;49.09;100293.63;5070000;28;20048;-75
2021/03/27 04:07:17;;;;;;;51.90;26.35;;;;;;;9.68;48.95;100296.22;5066635;28;20463;-76
2021/03/27 04:09:49;;;;;;;52.35;27.50;;;;;;;9.70;48.85;100294.41;5067926;28;20040;-75
2021/03/27 04:12:24;;;;;;;51.65;26.15;;;;;;;9.65;49.11;100291.09;5071100;28;20105;-75
2021/03/27 04:15:03;;;;;;;50.60;27.08;;;;;;;9.59;49.38;100289.56;5070917;28;20155;-75
2021/03/27 04:17:40;;;;;;;53.10;27.17;;;;;;;9.56;49.18;100288.78;5071892;28;20044;-75
2021/03/27 04:20:13;;;;;;;51.10;28.77;;;;;;;9.47;49.55;100285.56;5071214;28;20515;-74
2021/03/27 04:22:44;;;;;;;53.50;29.60;;;;;;;9.39;49.96;100287.59;5071156;28;20466;-75
2021/03/27 04:25:19;;;;;;;53.38;26.67;;;;;;;9.32;49.85;100291.31;5070900;28;20056;-74
2021/03/27 04:27:53;;;;;;;50.80;27.70;;;;;;;9.27;50.28;100293.22;5071472;28;20079;-75
2021/03/27 04:30:29;;;;;;;52.22;27.35;;;;;;;9.23;50.47;100302.06;5070959;28;20097;-76
2021/03/27 04:33:02;;;;;;;50.90;28.10;;;;;;;9.19;50.55;100289.16;5071396;28;20048;-75
2021/03/27 04:35:47;;;;;;;55.15;27.48;;;;;;;9.18;50.67;100292.66;5070769;28;20057;-75
2021/03/27 04:38:20;;;;;;;54.17;27.17;;;;;;;9.21;50.58;100297.81;5071646;28;20131;-75
2021/03/27 04:40:52;;;;;;;53.80;27.42;;;;;;;9.23;50.44;100296.84;5071260;28;20044;-75
2021/03/27 04:43:25;;;;;;;53.80;28.25;;;;;;;9.27;50.58;100303.69;5070994;28;20067;-75
2021/03/27 04:45:56;;;;;;;54.20;27.15;;;;;;;9.36;50.55;100297.28;5074950;28;20131;-75
2021/03/27 04:48:41;;;;;;;50.07;28.23;;;;;;;9.41;50.45;100301.50;5073432;28;20079;-76
2021/03/27 04:51:36;;;;;;;48.13;26.70;;;;;;;9.51;50.22;100295.94;5075012;28;20136;-75
2021/03/27 04:54:09;;;;;;;50.47;27.40;;;;;;;9.58;50.18;100294.81;5074426;28;20404;-77
2021/03/27 04:56:45;;;;;;;52.05;27.73;;;;;;;9.61;50.06;100292.13;5075058;28;20045;-75
2021/03/27 04:59:18;;;;;;;55.28;27.90;;;;;;;9.64;50.27;100292.00;5074559;28;20044;-76
2021/03/27 05:01:52;;;;;;;49.58;26.65;;;;;;;9.70;49.98;100292.66;5074380;28;20147;-76
2021/03/27 05:04:24;;;;;;;49.67;26.60;;;;;;;9.72;49.95;100289.97;5074410;28;20048;-75
2021/03/27 05:06:59;;;;;;;50.20;26.90;;;;;;;9.72;50.19;100282.97;5074834;28;20429;-74
2021/03/27 05:09:33;;;;;;;51.35;27.75;;;;;;;9.79;49.99;100281.03;5074012;28;20048;-75
2021/03/27 05:12:03;;;;;;;54.53;26.90;;;;;;;9.87;50.06;100284.22;5067919;28;20528;-74
2021/03/27 05:14:55;;;;;;;47.65;25.30;;;;;;;9.95;49.85;100292.66;5066550;28;20135;-73
2021/03/27 05:17:29;;;;;;;49.03;26.60;;;;;;;9.96;49.71;100286.50;5073689;28;20116;-72
2021/03/27 05:20:01;;;;;;;51.40;26.05;;;;;;;10.00;49.83;100282.91;5072898;28;20056;-75
2021/03/27 05:22:49;;;;;;;51.45;28.00;;;;;;;10.05;49.80;100282.72;5068555;28;20518;-76
2021/03/27 05:25:29;;;;;;;55.90;27.55;;;;;;;10.16;49.42;100282.31;5069765;28;20075;-75
2021/03/27 05:28:07;;;;;;;52.33;27.02;;;;;;;10.17;49.50;100287.50;5072971;28;20448;-75
2021/03/27 05:30:47;;;;;;;48.22;27.00;;;;;;;10.17;49.62;100281.41;5073401;28;20480;-74
2021/03/27 05:33:35;;;;;;;55.42;27.10;;;;;;;10.12;49.80;100275.50;5074174;28;20155;-76
2021/03/27 05:36:23;;;;;;;47.92;26.90;;;;;;;10.11;49.82;100279.03;5053943;28;20136;-75
2021/03/27 05:38:57;;;;;;;49.88;26.58;;;;;;;10.15;49.50;100272.75;5055839;28;20052;-75
2021/03/27 05:42:05;;;;;;;49.92;26.38;;;;;;;10.20;49.65;100283.91;5072744;28;20059;-76
2021/03/27 05:45:06;;;;;;;46.85;27.25;;;;;;;10.20;49.54;100270.81;4991761;28;20092;-77
2021/03/27 05:48:08;;;;;;;49.17;27.55;;;;;;;10.22;49.25;100284.78;5073297;28;20049;-76
2021/03/27 05:51:05;;;;;;;48.40;26.05;;;;;;;10.18;49.37;100272.63;5073526;28;20048;-76
2021/03/27 05:54:13;;;;;;;44.22;25.77;;;;;;;10.17;49.38;100274.41;5073395;28;20067;-78
2021/03/27 05:57:09;;;;;;;46.53;25.13;;;;;;;10.20;49.40;100274.28;5074211;28;20040;-77
2021/03/27 05:59:53;;;;;;;47.25;25.63;;;;;;;10.23;49.13;100282.09;5073238;28;20055;-76
2021/03/27 06:02:40;;;;;;;50.08;25.35;;;;;;;10.25;49.17;100268.94;5073533;28;20152;-76
2021/03/27 06:05:25;;;;;;;49.20;27.05;;;;;;;10.28;49.12;100271.44;5062287;28;20144;-76
2021/03/27 06:08:20;;;;;;;44.63;25.70;;;;;;;10.33;49.10;100266.88;5053240;28;20408;-77
2021/03/27 06:10:58;;;;;;;50.97;26.08;;;;;;;10.32;49.05;100267.78;5069963;28;20507;-77
2021/03/27 06:13:51;;;;;;;49.78;27.15;;;;;;;10.36;49.26;100259.75;5073202;28;20491;-76
2021/03/27 06:16:42;;;;;;;50.53;26.05;;;;;;;10.49;48.90;100268.03;5053425;28;20086;-77
2021/03/27 06:19:34;;;;;;;47.80;25.08;;;;;;;10.61;48.52;100257.06;5057748;28;20132;-78
2021/03/27 06:22:13;;;;;;;47.35;26.15;;;;;;;10.71;48.35;100256.72;5073419;28;20062;-78
2021/03/27 06:25:02;;;;;;;52.30;26.85;;;;;;;10.71;48.73;100264.59;5072422;28;20061;-78
2021/03/27 06:28:00;;;;;;;54.30;26.17;;;;;;;10.68;48.55;100262.94;5073090;28;20059;-77
2021/03/27 06:31:07;;;;;;;49.65;26.90;;;;;;;11.03;47.99;100256.28;5072744;28;20507;-77
2021/03/27 06:34:02;;;;;;;47.97;27.08;;;;;;;11.74;46.42;100249.00;5021770;28;20607;-76
2021/03/27 06:36:53;;;;;;;47.58;25.55;;;;;;;12.31;45.42;100253.47;5065743;28;20072;-76
2021/03/27 06:39:41;;;;;;;49.22;26.25;;;;;;;12.98;44.02;100255.59;5086398;28;20087;-76
2021/03/27 06:42:29;;;;;;;48.45;26.55;;;;;;;13.97;42.39;100255.06;5071701;28;20053;-76
2021/03/27 06:45:22;;;;;;;50.13;26.05;;;;;;;15.64;39.80;100255.44;5072623;28;20189;-76
2021/03/27 06:48:17;;;;;;;44.28;25.55;;;;;;;17.21;37.09;100250.91;5072073;28;20058;-76
2021/03/27 06:51:11;;;;;;;45.83;27.40;;;;;;;18.87;34.71;100242.03;5072166;28;20084;-77
2021/03/27 06:54:07;;;;;;;48.95;27.42;;;;;;;19.50;33.60;100250.66;5069125;28;20052;-73
2021/03/27 06:56:40;;;;;;;41.92;25.77;;;;;;;20.30;32.12;100248.91;5066049;28;20044;-76
2021/03/27 06:59:43;;;;;;;43.22;25.35;;;;;;;21.33;31.06;100243.34;5063665;28;20480;-73
2021/03/27 07:03:01;;;;;;;45.95;27.73;;;;;;;22.15;29.59;100239.84;5062508;28;20048;-74
2021/03/27 07:06:06;;;;;;;46.75;26.35;;;;;;;22.77;28.81;100244.16;5021267;28;20050;-76
2021/03/27 07:09:01;;;;;;;38.92;25.35;;;;;;;23.66;27.61;100241.47;5016007;28;20223;-75
2021/03/27 07:12:04;;;;;;;43.03;26.15;;;;;;;23.72;27.20;100243.56;5065617;28;20139;-75
2021/03/27 07:14:48;;;;;;;42.05;25.67;;;;;;;25.15;25.48;100235.09;5031784;28;20086;-75
2021/03/27 07:17:31;;;;;;;49.10;28.58;;;;;;;25.19;24.61;100232.94;5062815;28;20041;-74
2021/03/27 07:20:08;;;;;;;38.58;26.42;;;;;;;25.22;24.39;100238.88;5062656;28;20092;-74
2021/03/27 07:22:51;;;;;;;39.20;26.48;;;;;;;25.08;24.31;100239.38;5061068;28;20040;-73
2021/03/27 07:25:39;;;;;;;40.08;26.77;;;;;;;26.19;23.12;100235.25;5067038;28;20071;-75
2021/03/27 07:28:50;;;;;;;44.90;26.48;;;;;;;26.53;22.69;100232.59;5066187;28;20151;-75
2021/03/27 07:31:35;;;;;;;44.75;26.70;;;;;;;26.69;22.40;100238.03;5067439;28;20094;-75
2021/03/27 07:34:26;;;;;;;39.00;25.55;;;;;;;27.79;21.13;100231.50;5066476;28;20080;-76
2021/03/27 07:37:25;;;;;;;41.88;28.30;;;;;;;28.80;20.26;100242.50;5065747;28;20052;-74
2021/03/27 07:40:05;;;;;;;40.80;26.38;;;;;;;28.62;19.92;100223.03;5059635;28;20044;-75
2021/03/27 07:42:56;;;;;;;41.20;26.15;;;;;;;29.34;19.50;100218.19;5065721;28;20381;-75
2021/03/27 07:45:37;;;;;;;38.08;26.55;;;;;;;30.32;18.15;100220.84;5019747;28;20148;-70
2021/03/27 07:48:41;;;;;;;38.85;26.13;;;;;;;30.51;18.16;100224.84;5067390;28;20052;-72
2021/03/27 07:51:29;;;;;;;36.78;26.33;;;;;;;30.94;17.54;100206.84;5061554;28;20512;-70
2021/03/27 07:54:08;;;;;;;39.58;26.10;;;;;;;30.93;17.67;100223.28;5032714;28;20067;-72
2021/03/27 07:56:44;;;;;;;37.33;25.25;;;;;;;30.90;16.95;100205.56;5065876;28;20043;-71
2021/03/27 07:59:48;;;;;;;35.13;25.00;;;;;;;31.27;17.38;100210.97;5063363;28;20044;-71
2021/03/27 08:02:44;;;;;;;36.60;25.13;;;;;;;32.18;16.65;100212.72;5063034;28;20040;-69
2021/03/27 08:05:44;;;;;;;34.72;24.48;;;;;;;31.99;16.60;100222.41;5062676;28;20063;-71
2021/03/27 08:08:48;;;;;;;35.83;25.88;;;;;;;31.57;16.95;100214.34;5065522;28;20045;-71
2021/03/27 08:11:23;;;;;;;33.17;24.98;;;;;;;32.60;15.80;100208.16;5021029;28;20139;-73
2021/03/27 08:14:27;;;;;;;33.40;24.75;;;;;;;33.14;15.19;100208.16;5067989;28;20106;-75
2021/03/27 08:17:22;;;;;;;35.25;26.20;;;;;;;33.46;15.02;100211.13;5053733;28;20076;-74
2021/03/27 08:20:22;;;;;;;36.28;24.67;;;;;;;34.30;14.34;100215.84;5066210;28;20098;-75
2021/03/27 08:23:28;;;;;;;34.75;24.90;;;;;;;34.40;14.09;100217.13;5074466;28;20269;-75
2021/03/27 08:26:20;;;;;;;33.95;24.00;;;;;;;33.90;14.48;100195.00;5065510;28;20473;-73
2021/03/27 08:29:04;;;;;;;33.45;23.92;;;;;;;33.04;14.90;100208.53;5073196;28;20045;-75
2021/03/27 08:32:06;;;;;;;32.47;23.25;;;;;;;33.42;14.43;100208.00;5066958;28;20142;-77
2021/03/27 08:35:03;;;;;;;35.10;24.10;;;;;;;32.90;14.99;100203.28;5070401;28;20052;-75
2021/03/27 08:38:00;;;;;;;31.25;23.20;;;;;;;33.14;14.19;100201.88;5071655;28;20157;-74
2021/03/27 08:40:42;;;;;;;36.05;25.13;;;;;;;33.64;14.46;100200.47;5072518;28;20040;-75
2021/03/27 08:43:38;;;;;;;32.88;24.48;;;;;;;33.74;13.91;100200.06;5073607;28;20048;-77
2021/03/27 08:46:25;;;;;;;34.88;23.33;;;;;;;33.33;14.68;100193.78;5066966;28;20051;-74
2021/03/27 08:49:18;;;;;;;34.45;23.05;;;;;;;33.04;14.68;100194.94;5064578;28;20548;-74
2021/03/27 08:51:59;;;;;;;34.75;23.55;;;;;;;32.80;14.78;100194.69;5067140;28;20097;-72
2021/03/27 08:54:52;;;;;;;32.35;23.38;;;;;;;31.98;15.80;100181.94;5064054;28;20056;-71
2021/03/27 08:57:30;;;;;;;34.20;23.45;;;;;;;31.20;16.25;100184.66;5070540;28;20084;-73
2021/03/27 09:00:32;;;;;;;28.75;22.60;;;;;;;30.46;16.54;100165.06;5070774;28;20094;-72
2021/03/27 09:03:26;;;;;;;31.80;22.38;;;;;;;29.38;17.71;100179.03;5068072;28;20079;-75
2021/03/27 09:06:28;;;;;;;33.75;22.20;;;;;;;29.30;17.39;100179.09;5070015;28;20075;-76
2021/03/27 09:09:12;;;;;;;33.30;22.08;;;;;;;29.38;17.45;100170.09;5069050;28;20079;-73
2021/03/27 09:12:04;;;;;;;34.05;23.85;;;;;;;31.02;16.27;100169.84;5066948;28;20048;-74
2021/03/27 09:14:55;;;;;;;30.48;21.52;;;;;;;31.95;15.44;100158.78;5069020;28;20127;-74
2021/03/27 09:17:45;;;;;;;31.80;22.02;;;;;;;32.18;14.97;100152.22;5068006;28;20060;-73
2021/03/27 09:20:28;;;;;;;29.15;19.20;;;;;;;31.93;15.50;100157.31;5065616;28;20056;-73
2021/03/27 09:23:25;;;;;;;28.63;20.55;;;;;;;31.39;15.91;100150.63;5063612;28;20040;-73
2021/03/27 09:26:25;;;;;;;31.05;19.92;;;;;;;31.82;15.22;100143.28;5060718;28;20116;-74
2021/03/27 09:29:07;;;;;;;28.15;20.10;;;;;;;32.45;14.70;100135.88;4969417;28;20484;-71
2021/03/27 09:32:02;;;;;;;27.42;20.10;;;;;;;32.29;14.96;100136.25;5075919;28;20044;-75
2021/03/27 09:35:02;;;;;;;28.10;19.75;;;;;;;31.99;14.66;100123.97;5069143;28;20494;-72
2021/03/27 09:37:40;;;;;;;27.52;19.08;;;;;;;31.55;15.50;100135.97;5067872;28;20053;-72
2021/03/27 09:40:18;;;;;;;24.90;17.35;;;;;;;31.04;15.30;100127.19;5063345;28;20036;-76
2021/03/27 09:43:18;;;;;;;24.48;16.88;;;;;;;30.25;16.23;100124.44;5069758;28;20052;-72
2021/03/27 09:45:57;;;;;;;27.42;17.65;;;;;;;29.61;16.55;100126.84;5065578;28;20045;-72
2021/03/27 09:48:34;;;;;;;28.25;18.63;;;;;;;29.43;16.26;100128.00;5070549;28;20094;-73
2021/03/27 09:51:16;;;;;;;29.20;18.67;;;;;;;28.28;17.61;100123.56;5071427;28;20127;-74
2021/03/27 09:54:02;;;;;;;28.23;18.45;;;;;;;26.84;19.04;100122.56;5069498;28;20090;-72
2021/03/27 09:56:37;;;;;;;27.23;17.70;;;;;;;25.89;20.04;100114.88;5070571;28;20488;-73
2021/03/27 09:59:17;;;;;;;27.65;15.98;;;;;;;25.25;20.75;100119.66;5069466;28;20079;-74
2021/03/27 10:01:51;;;;;;;27.55;17.27;;;;;;;24.80;21.07;100112.53;5069779;28;20060;-73
2021/03/27 10:04:38;;;;;;;23.65;14.70;;;;;;;24.03;21.33;100116.53;5065164;28;20530;-73
2021/03/27 10:07:23;;;;;;;25.30;14.90;;;;;;;23.65;21.78;100114.00;5063841;28;20486;-73
2021/03/27 10:10:02;;;;;;;24.98;15.30;;;;;;;23.58;21.68;100099.53;5066431;28;20446;-73
2021/03/27 10:12:36;;;;;;;23.33;14.73;;;;;;;23.49;22.03;100105.69;5068701;28;20110;-74
2021/03/27 10:15:16;;;;;;;24.45;15.63;;;;;;;23.11;22.26;100102.97;5070169;28;20396;-75
2021/03/27 10:17:48;;;;;;;24.48;14.77;;;;;;;22.86;22.33;100097.34;5067282;28;20048;-73
2021/03/27 10:20:25;;;;;;;24.25;14.90;;;;;;;22.47;22.58;100099.94;5067814;28;20056;-71
2021/03/27 10:23:04;;;;;;;24.52;16.08;;;;;;;22.35;23.16;100096.56;5071045;28;20048;-76
2021/03/27 10:25:36;;;;;;;23.75;15.27;;;;;;;22.37;23.00;100099.09;5066057;28;20062;-77
2021/03/27 10:28:14;;;;;;;22.48;15.25;;;;;;;22.09;23.48;100096.25;5064773;28;20129;-77
2021/03/27 10:30:52;;;;;;;25.63;14.32;;;;;;;21.83;23.67;100095.81;5065950;28;20052;-77
2021/03/27 10:33:22;;;;;;;25.40;15.48;;;;;;;21.73;23.56;100094.94;5067461;28;20048;-77
2021/03/27 10:36:01;;;;;;;22.05;15.05;;;;;;;21.60;23.72;100088.97;5068702;28;20088;-77
2021/03/27 10:38:40;;;;;;;30.60;17.33;;;;;;;21.26;24.57;100081.22;5065373;28;20068;-76
2021/03/27 10:41:15;;;;;;;25.80;15.48;;;;;;;21.04;24.80;100093.81;5063900;28;20044;-77
2021/03/27 10:43:49;;;;;;;27.63;16.90;;;;;;;20.91;24.97;100078.84;5066792;28;20059;-74
2021/03/27 10:46:26;;;;;;;24.75;15.93;;;;;;;20.86;24.89;100085.53;5069929;28;20040;-77
2021/03/27 10:49:23;;;;;;;25.85;16.35;;;;;;;20.82;25.16;100081.41;5069672;28;20139;-74
2021/03/27 10:52:25;;;;;;;24.95;14.65;;;;;;;20.61;25.53;100084.03;5053511;28;20123;-75
2021/03/27 10:55:36;;;;;;;22.42;14.98;;;;;;;20.66;25.80;100068.53;5068880;28;20119;-75
2021/03/27 10:58:25;;;;;;;22.65;13.60;;;;;;;20.60;25.51;100079.69;5068905;28;20139;-76
2021/03/27 11:01:11;;;;;;;26.63;16.73;;;;;;;20.52;25.71;100084.81;5070185;28;20040;-76
2021/03/27 11:04:06;;;;;;;26.60;15.32;;;;;;;20.53;25.91;100082.03;5070403;28;20059;-77
2021/03/27 11:06:49;;;;;;;22.70;13.35;;;;;;;20.64;26.09;100081.16;5069230;28;20135;-76
2021/03/27 11:09:49;;;;;;;22.00;14.18;;;;;;;20.69;26.49;100065.63;5069779;28;20559;-75
2021/03/27 11:12:36;;;;;;;19.75;13.50;;;;;;;20.63;25.74;100077.63;5068989;28;20147;-75
2021/03/27 11:15:29;;;;;;;23.73;14.15;;;;;;;20.58;25.94;100081.63;5063875;28;20057;-75
2021/03/27 11:18:37;;;;;;;27.08;13.48;;;;;;;20.69;26.00;100086.94;5067861;28;20130;-77
2021/03/27 11:21:18;;;;;;;26.05;14.73;;;;;;;20.64;26.45;100078.47;5067312;28;20068;-75
2021/03/27 11:24:06;;;;;;;24.13;14.73;;;;;;;20.69;26.65;100076.28;5071336;28;20052;-76
2021/03/27 11:27:13;;;;;;;24.33;14.82;;;;;;;20.77;26.10;100076.47;5067355;28;20037;-74
2021/03/27 11:29:50;;;;;;;25.95;14.35;;;;;;;20.70;25.89;100078.81;5061457;28;20128;-75
2021/03/27 11:32:26;;;;;;;25.27;14.40;;;;;;;20.64;26.46;100067.84;5066907;28;20460;-75
2021/03/27 11:35:00;;;;;;;25.15;14.57;;;;;;;20.79;26.61;100077.19;5069078;28;20055;-77
2021/03/27 11:37:43;;;;;;;24.80;15.65;;;;;;;20.87;26.14;100080.06;5067308;28;20189;-76
2021/03/27 11:40:22;;;;;;;28.23;16.88;;;;;;;20.85;26.28;100074.03;5070227;28;20488;-76
2021/03/27 11:42:59;;;;;;;28.42;16.08;;;;;;;20.85;26.60;100071.38;5068965;28;20136;-76
2021/03/27 11:45:33;;;;;;;28.30;16.58;;;;;;;20.87;27.00;100076.56;5067866;28;20072;-77
2021/03/27 11:48:04;;;;;;;25.88;16.88;;;;;;;20.85;26.89;100066.03;5067750;28;20451;-75
2021/03/27 11:50:58;;;;;;;28.08;16.40;;;;;;;20.61;27.07;100073.38;5067451;28;20911;-76
2021/03/27 11:53:44;;;;;;;27.05;15.60;;;;;;;20.56;27.48;100075.59;5064624;28;20083;-75
2021/03/27 11:56:20;;;;;;;26.83;17.40;;;;;;;20.70;27.11;100077.97;5063837;28;20053;-76
2021/03/27 12:02:06;;;;;;;25.00;15.82;;;;;;;21.17;26.34;100065.13;5030185;28;20045;-76
2021/03/27 12:04:50;;;;;;;26.92;16.73;;;;;;;21.30;26.64;100057.81;5072535;28;20079;-76
2021/03/27 12:07:21;;;;;;;27.42;16.50;;;;;;;21.52;26.31;100064.78;5070259;28;20496;-76
2021/03/27 12:09:56;;;;;;;27.08;16.00;;;;;;;21.52;26.46;100062.13;5060009;28;20033;-73
2021/03/27 12:12:33;;;;;;;26.90;15.93;;;;;;;21.64;26.46;100058.38;5064624;28;20071;-76
2021/03/27 12:15:14;;;;;;;24.48;16.13;;;;;;;21.57;26.46;100055.41;5068472;28;20140;-76
2021/03/27 12:17:59;;;;;;;24.60;14.18;;;;;;;21.36;26.75;100059.09;5070099;28;20045;-76
2021/03/27 12:20:31;;;;;;;26.10;15.68;;;;;;;21.38;26.83;100051.81;5067935;28;20499;-75
2021/03/27 12:23:05;;;;;;;24.15;15.05;;;;;;;21.45;27.26;100048.50;5068755;28;20478;-75